createdAt,value
2023-05-20T00:01:19.240Z,66.50
2023-05-20T00:03:47.436Z,66.40
2023-05-20T00:06:14.906Z,66.30
2023-05-20T00:08:42.325Z,66.30
2023-05-20T00:11:10.099Z,66.20
2023-05-20T00:13:37.473Z,66.30
2023-05-20T00:16:07.584Z,66.60
2023-05-20T00:18:35.032Z,66.50
2023-05-20T00:21:02.980Z,66.20
2023-05-20T00:23:30.454Z,66.50
2023-05-20T00:26:02.100Z,66.60
2023-05-20T00:28:30.709Z,66.50
2023-05-20T00:30:58.676Z,66.50
2023-05-20T00:33:26.177Z,66.50
2023-05-20T00:35:53.601Z,66.70
2023-05-20T00:38:21.487Z,66.90
2023-05-20T00:40:48.876Z,67.10
2023-05-20T00:43:16.799Z,66.80
2023-05-20T00:45:47.701Z,67.10
2023-05-20T00:48:17.319Z,67.00
2023-05-20T00:50:44.697Z,67.00
2023-05-20T00:53:12.462Z,66.90
2023-05-20T00:55:39.944Z,67.20
2023-05-20T00:58:07.561Z,67.40
2023-05-20T01:00:35.455Z,67.60
2023-05-20T01:03:03.059Z,67.50
2023-05-20T01:05:33.504Z,67.40
2023-05-20T01:08:03.560Z,67.20
2023-05-20T01:10:32.945Z,67.20
2023-05-20T01:13:03.910Z,67.30
2023-05-20T01:15:32.464Z,67.30
2023-05-20T01:18:06.286Z,67.20
2023-05-20T01:20:36.034Z,67.40
2023-05-20T01:23:04.430Z,67.30
2023-05-20T01:25:31.963Z,67.50
2023-05-20T01:28:00.048Z,67.60
2023-05-20T01:30:34.285Z,67.90
2023-05-20T01:33:07.473Z,67.80
2023-05-20T01:35:36.836Z,67.90
2023-05-20T01:38:06.667Z,67.90
2023-05-20T01:40:34.865Z,68.10
2023-05-20T01:43:03.526Z,68.00
2023-05-20T01:45:31.879Z,68.00
2023-05-20T01:48:00.190Z,67.70
2023-05-20T01:50:27.655Z,68.00
2023-05-20T01:52:55.915Z,68.10
2023-05-20T01:55:23.486Z,68.00
2023-05-20T01:57:51.147Z,67.80
2023-05-20T02:00:18.742Z,67.90
2023-05-20T02:02:46.207Z,67.90
2023-05-20T02:05:14.239Z,67.80
2023-05-20T02:07:41.498Z,67.70
2023-05-20T02:10:09.597Z,67.80
2023-05-20T02:12:38.635Z,67.70
2023-05-20T02:15:07.956Z,67.60
2023-05-20T02:17:38.045Z,67.60
2023-05-20T02:20:25.347Z,67.50
2023-05-20T02:22:53.046Z,67.10
2023-05-20T02:25:20.456Z,67.20
2023-05-20T02:27:48.783Z,66.90
2023-05-20T02:30:17.504Z,66.90
2023-05-20T02:32:45.444Z,66.50
2023-05-20T02:35:13.312Z,66.40
2023-05-20T02:37:40.708Z,66.30
2023-05-20T02:40:09.661Z,66.10
2023-05-20T02:42:37.062Z,65.90
2023-05-20T02:45:07.469Z,65.60
2023-05-20T02:47:37.838Z,65.40
2023-05-20T02:50:06.048Z,65.50
2023-05-20T02:52:35.128Z,65.20
2023-05-20T02:55:02.673Z,65.20
2023-05-20T02:57:35.325Z,64.90
2023-05-20T03:00:02.857Z,64.50
2023-05-20T03:02:33.010Z,64.00
2023-05-20T03:05:00.815Z,63.60
2023-05-20T03:07:31.846Z,63.60
2023-05-20T03:10:03.243Z,63.40
2023-05-20T03:12:33.755Z,63.30
2023-05-20T03:15:01.624Z,63.20
2023-05-20T03:17:37.312Z,63.00
2023-05-20T03:20:05.916Z,62.40
2023-05-20T03:22:34.246Z,62.50
2023-05-20T03:25:02.615Z,62.20
2023-05-20T03:27:39.339Z,61.80
2023-05-20T03:30:07.758Z,61.30
2023-05-20T03:32:34.999Z,60.30
2023-05-20T03:35:02.543Z,60.20
2023-05-20T03:37:32.861Z,59.50
2023-05-20T03:40:00.479Z,59.00
2023-05-20T03:42:29.675Z,59.00
2023-05-20T03:44:57.767Z,58.10
2023-05-20T03:47:25.136Z,58.00
2023-05-20T03:49:53.004Z,57.70
2023-05-20T03:52:20.430Z,57.60
2023-05-20T03:54:48.075Z,57.00
2023-05-20T03:57:16.116Z,56.30
2023-05-20T03:59:43.712Z,56.50
2023-05-20T04:02:11.305Z,55.50
2023-05-20T04:04:38.757Z,53.50
2023-05-20T04:07:06.935Z,48.90
2023-05-20T04:09:35.684Z,46.50
2023-05-20T04:12:03.582Z,42.20
2023-05-20T04:14:42.621Z,40.90
2023-05-20T04:17:10.528Z,39.50
2023-05-20T04:19:38.485Z,37.30
2023-05-20T04:22:06.572Z,35.60
2023-05-20T04:24:34.162Z,34.50
2023-05-20T04:27:07.550Z,33.50
2023-05-20T04:29:35.080Z,33.40
2023-05-20T04:32:06.606Z,33.90
2023-05-20T04:34:39.792Z,32.80
2023-05-20T04:37:10.448Z,31.90
2023-05-20T04:39:38.932Z,31.70
2023-05-20T04:42:06.738Z,31.70
2023-05-20T04:44:35.019Z,31.30
2023-05-20T04:47:02.372Z,31.10
2023-05-20T04:49:32.435Z,30.70
2023-05-20T04:52:00.949Z,30.30
2023-05-20T04:54:28.552Z,30.30
2023-05-20T04:56:56.770Z,30.50
2023-05-20T04:59:27.516Z,30.60
2023-05-20T05:01:58.305Z,29.90
2023-05-20T05:04:25.830Z,29.70
2023-05-20T05:06:53.100Z,29.30
2023-05-20T05:09:20.695Z,29.20
2023-05-20T05:11:48.276Z,29.10
2023-05-20T05:14:15.856Z,29.30
2023-05-20T05:16:44.047Z,28.50
2023-05-20T05:19:14.196Z,28.20
2023-05-20T05:21:42.252Z,28.30
2023-05-20T05:24:09.716Z,28.00
2023-05-20T05:26:40.977Z,28.20
2023-05-20T05:29:10.286Z,27.70
2023-05-20T05:31:41.243Z,27.40
2023-05-20T05:34:08.879Z,26.90
2023-05-20T05:36:37.142Z,27.20
2023-05-20T05:39:05.531Z,27.30
2023-05-20T05:41:35.784Z,27.00
2023-05-20T05:44:08.772Z,26.80
2023-05-20T05:46:36.752Z,26.80
2023-05-20T05:49:20.987Z,26.60
2023-05-20T05:51:51.685Z,26.00
2023-05-20T05:54:22.063Z,25.80
2023-05-20T05:56:51.607Z,25.40
2023-05-20T05:59:21.647Z,25.60
2023-05-20T06:01:49.330Z,25.10
2023-05-20T06:04:16.981Z,25.00
2023-05-20T06:06:44.697Z,25.00
2023-05-20T06:09:14.364Z,25.00
2023-05-20T06:11:42.548Z,24.60
2023-05-20T06:14:09.915Z,24.80
2023-05-20T06:16:40.185Z,24.10
2023-05-20T06:19:09.749Z,24.10
2023-05-20T06:21:37.206Z,24.00
2023-05-20T06:24:05.589Z,23.90
2023-05-20T06:26:33.288Z,23.60
2023-05-20T06:29:01.149Z,23.50
2023-05-20T06:31:30.657Z,23.40
2023-05-20T06:34:01.121Z,23.40
2023-05-20T06:36:30.002Z,23.20
2023-05-20T06:38:58.362Z,22.80
2023-05-20T06:41:26.662Z,22.80
2023-05-20T06:43:55.376Z,22.70
2023-05-20T06:46:23.187Z,22.60
2023-05-20T06:48:53.016Z,22.70
2023-05-20T06:51:21.099Z,23.00
2023-05-20T06:53:49.509Z,23.00
2023-05-20T06:56:17.960Z,23.20
2023-05-20T06:58:48.025Z,23.40
2023-05-20T07:01:18.965Z,23.60
2023-05-20T07:03:47.094Z,23.50
2023-05-20T07:06:18.529Z,23.40
2023-05-20T07:08:57.560Z,23.30
2023-05-20T07:11:25.225Z,23.10
2023-05-20T07:13:55.916Z,23.50
2023-05-20T07:16:25.897Z,23.70
2023-05-20T07:18:54.028Z,24.10
2023-05-20T07:21:40.284Z,24.20
2023-05-20T07:24:08.085Z,24.50
2023-05-20T07:26:36.615Z,24.80
2023-05-20T07:29:15.232Z,24.60
2023-05-20T07:32:04.145Z,24.30
2023-05-20T07:34:33.565Z,24.00
2023-05-20T07:37:01.488Z,23.50
2023-05-20T07:39:34.335Z,23.10
2023-05-20T07:42:04.294Z,23.00
2023-05-20T07:44:32.365Z,23.10
2023-05-20T07:47:05.599Z,23.40
2023-05-20T07:49:33.316Z,23.50
2023-05-20T07:52:03.028Z,23.60
2023-05-20T07:54:31.404Z,23.80
2023-05-20T07:57:01.994Z,24.20
2023-05-20T07:59:29.492Z,24.10
2023-05-20T08:01:57.462Z,24.00
2023-05-20T08:04:30.686Z,24.30
2023-05-20T08:06:59.795Z,24.70
2023-05-20T08:09:27.876Z,24.60
2023-05-20T08:11:55.855Z,24.50
2023-05-20T08:14:25.371Z,24.70
2023-05-20T08:16:54.772Z,24.40
2023-05-20T08:19:22.702Z,24.40
2023-05-20T08:21:51.770Z,24.30
2023-05-20T08:24:21.491Z,24.40
2023-05-20T08:26:49.282Z,24.20
2023-05-20T08:29:17.577Z,24.10
2023-05-20T08:31:45.681Z,23.80
2023-05-20T08:34:17.095Z,23.90
2023-05-20T08:36:45.656Z,24.20
2023-05-20T08:39:23.180Z,24.50
2023-05-20T08:41:55.106Z,24.50
2023-05-20T08:44:24.841Z,24.50
2023-05-20T08:46:58.541Z,24.40
2023-05-20T08:49:26.436Z,24.20
2023-05-20T08:52:03.076Z,24.10
2023-05-20T08:54:49.340Z,24.40
2023-05-20T08:57:23.261Z,24.00
2023-05-20T08:59:51.505Z,24.20
2023-05-20T09:02:18.986Z,24.40
2023-05-20T09:04:47.039Z,24.10
2023-05-20T09:07:17.510Z,23.60
2023-05-20T09:09:48.112Z,23.50
2023-05-20T09:12:16.373Z,23.50
2023-05-20T09:14:49.956Z,23.50
2023-05-20T09:17:20.491Z,23.90
2023-05-20T09:19:51.325Z,24.00
2023-05-20T09:22:29.283Z,24.10
2023-05-20T09:24:56.962Z,24.10
2023-05-20T09:27:30.652Z,23.70
2023-05-20T09:30:01.764Z,23.80
2023-05-20T09:32:32.451Z,23.70
2023-05-20T09:35:01.954Z,23.90
2023-05-20T09:37:31.207Z,24.00
2023-05-20T09:40:21.683Z,23.60
2023-05-20T09:43:02.800Z,23.50
2023-05-20T09:45:54.351Z,23.70
2023-05-20T09:48:22.893Z,23.40
2023-05-20T09:53:35.385Z,23.50
2023-05-20T09:56:04.241Z,23.50
2023-05-20T09:58:33.975Z,23.70
2023-05-20T10:01:06.783Z,23.80
2023-05-20T10:03:34.980Z,23.80
2023-05-20T10:06:24.512Z,24.00
2023-05-20T10:09:30.821Z,24.30
2023-05-20T10:12:31.048Z,24.20
2023-05-20T10:15:38.289Z,24.40
2023-05-20T10:18:26.124Z,24.90
2023-05-20T10:21:00.241Z,25.70
2023-05-20T10:23:32.001Z,25.90
2023-05-20T10:26:07.957Z,25.60
2023-05-20T10:28:40.194Z,25.90
2023-05-20T10:31:23.771Z,25.90
2023-05-20T10:33:54.353Z,26.10
2023-05-20T10:36:32.101Z,26.10
2023-05-20T10:39:00.909Z,26.20
2023-05-20T10:41:29.609Z,26.50
2023-05-20T10:44:05.440Z,27.00
2023-05-20T10:47:00.016Z,27.00
2023-05-20T10:49:36.380Z,27.50
2023-05-20T10:52:06.597Z,28.00
2023-05-20T10:54:59.482Z,28.40
2023-05-20T10:57:28.623Z,28.70
2023-05-20T10:59:59.838Z,28.90
2023-05-20T11:02:36.922Z,29.30
2023-05-20T11:05:06.781Z,29.60
2023-05-20T11:07:34.823Z,30.20
2023-05-20T11:10:02.627Z,30.20
2023-05-20T11:15:02.754Z,30.30
2023-05-20T11:17:42.094Z,30.30
2023-05-20T11:20:12.122Z,30.60
2023-05-20T11:22:42.121Z,30.90
2023-05-20T11:25:10.296Z,30.90
2023-05-20T11:27:40.693Z,30.90
2023-05-20T11:30:09.121Z,30.80
2023-05-20T11:32:39.721Z,30.80
2023-05-20T11:35:26.698Z,31.00
2023-05-20T11:38:04.108Z,30.90
2023-05-20T11:40:42.755Z,31.00
2023-05-20T11:43:21.393Z,31.20
2023-05-20T11:46:00.445Z,31.40
2023-05-20T11:48:28.323Z,31.30
2023-05-20T11:51:00.676Z,31.50
2023-05-20T11:53:31.111Z,31.60
2023-05-20T11:56:00.724Z,31.60
2023-05-20T11:58:31.231Z,31.60
2023-05-20T12:01:17.925Z,31.50
2023-05-20T12:03:49.969Z,31.50
2023-05-20T12:06:20.457Z,31.60
2023-05-20T12:08:57.959Z,31.70
2023-05-20T12:11:31.009Z,32.30
2023-05-20T12:13:58.358Z,32.30
2023-05-20T12:16:26.520Z,32.70
2023-05-20T12:18:54.490Z,33.10
2023-05-20T12:21:25.892Z,33.10
2023-05-20T12:23:58.193Z,33.60
2023-05-20T12:26:27.573Z,33.60
2023-05-20T12:28:56.548Z,33.60
2023-05-20T12:31:25.644Z,33.70
2023-05-20T12:33:53.498Z,33.80
2023-05-20T12:36:21.116Z,33.80
2023-05-20T12:38:51.861Z,33.50
2023-05-20T12:41:20.069Z,33.50
2023-05-20T12:43:47.639Z,33.20
2023-05-20T12:46:15.880Z,33.30
2023-05-20T12:48:45.896Z,33.50
2023-05-20T12:51:13.437Z,33.40
2023-05-20T12:53:44.518Z,33.30
2023-05-20T12:56:12.128Z,33.20
2023-05-20T12:58:39.968Z,33.30
2023-05-20T13:01:08.851Z,33.60
2023-05-20T13:03:39.921Z,33.90
2023-05-20T13:06:07.533Z,34.30
2023-05-20T13:08:35.121Z,34.40
2023-05-20T13:11:05.248Z,34.50
2023-05-20T13:13:35.310Z,34.20
2023-05-20T13:16:03.376Z,34.30
2023-05-20T13:18:32.192Z,34.20
2023-05-20T13:20:59.517Z,34.20
2023-05-20T13:23:27.526Z,34.50
2023-05-20T13:25:54.983Z,34.70
2023-05-20T13:28:22.820Z,34.80
2023-05-20T13:30:50.806Z,34.70
2023-05-20T13:33:20.581Z,34.60
2023-05-20T13:35:48.680Z,34.60
2023-05-20T13:38:19.353Z,34.60
2023-05-20T13:40:49.253Z,34.80
2023-05-20T13:43:17.429Z,35.00
2023-05-20T13:45:46.814Z,35.10
2023-05-20T13:48:22.173Z,35.00
2023-05-20T13:50:51.840Z,35.20
2023-05-20T13:53:25.211Z,35.30
2023-05-20T13:55:53.698Z,35.20
2023-05-20T13:58:24.078Z,35.20
2023-05-20T14:00:55.309Z,35.20
2023-05-20T14:03:25.885Z,35.10
2023-05-20T14:05:53.623Z,35.00
2023-05-20T14:08:21.541Z,35.00
2023-05-20T14:10:56.693Z,35.30
2023-05-20T14:13:25.199Z,35.00
2023-05-20T14:15:55.043Z,35.20
2023-05-20T14:18:24.189Z,35.40
2023-05-20T14:20:56.475Z,35.50
2023-05-20T14:23:27.101Z,35.70
2023-05-20T14:25:55.118Z,35.80
2023-05-20T14:28:25.759Z,35.70
2023-05-20T14:31:24.851Z,35.60
2023-05-20T14:33:54.757Z,35.80
2023-05-20T14:36:22.963Z,35.90
2023-05-20T14:38:52.305Z,35.90
2023-05-20T14:41:25.082Z,35.90
2023-05-20T14:43:52.895Z,36.00
2023-05-20T14:46:22.708Z,36.10
2023-05-20T14:48:50.492Z,36.10
2023-05-20T14:51:18.145Z,36.00
2023-05-20T14:53:46.463Z,35.80
2023-05-20T14:56:14.585Z,35.90
2023-05-20T14:58:42.850Z,35.90
2023-05-20T15:01:10.376Z,36.00
2023-05-20T15:03:40.270Z,35.90
2023-05-20T15:06:08.497Z,35.80
2023-05-20T15:08:36.375Z,35.90
2023-05-20T15:11:06.927Z,36.10
2023-05-20T15:13:34.340Z,36.00
2023-05-20T15:16:02.335Z,35.90
2023-05-20T15:18:30.397Z,36.00
2023-05-20T15:21:00.777Z,36.00
2023-05-20T15:23:31.073Z,36.30
2023-05-20T15:25:59.357Z,36.50
2023-05-20T15:28:27.280Z,36.70
2023-05-20T15:30:56.222Z,36.70
2023-05-20T15:33:26.294Z,36.60
2023-05-20T15:35:54.108Z,36.80
2023-05-20T15:38:24.796Z,36.90
2023-05-20T15:40:52.856Z,36.90
2023-05-20T15:43:20.580Z,36.90
2023-05-20T15:45:49.053Z,36.90
2023-05-20T15:48:18.378Z,37.10
2023-05-20T15:50:46.006Z,37.10
2023-05-20T15:53:15.321Z,37.10
2023-05-20T15:55:44.990Z,37.20
2023-05-20T15:58:13.540Z,37.40
2023-05-20T16:00:41.816Z,37.60
2023-05-20T16:03:11.147Z,37.40
2023-05-20T16:05:41.139Z,37.70
2023-05-20T16:08:08.834Z,38.00
2023-05-20T16:10:36.945Z,38.10
2023-05-20T16:13:05.561Z,37.80
2023-05-20T16:15:38.164Z,37.80
2023-05-20T16:18:06.230Z,38.10
2023-05-20T16:20:34.561Z,38.00
2023-05-20T16:23:02.476Z,38.00
2023-05-20T16:25:30.207Z,38.10
2023-05-20T16:28:01.248Z,38.20
2023-05-20T16:30:28.923Z,38.70
2023-05-20T16:32:57.548Z,38.70
2023-05-20T16:35:26.354Z,38.80
2023-05-20T16:37:53.997Z,38.60
2023-05-20T16:40:22.420Z,38.90
2023-05-20T16:42:51.716Z,39.20
2023-05-20T16:45:19.837Z,39.20
2023-05-20T16:47:47.533Z,39.30
2023-05-20T16:50:19.610Z,39.60
2023-05-20T16:52:47.016Z,39.80
2023-05-20T16:55:16.451Z,40.00
2023-05-20T16:57:48.156Z,40.00
2023-05-20T17:00:17.044Z,40.20
2023-05-20T17:02:44.793Z,40.40
2023-05-20T17:05:13.135Z,40.60
2023-05-20T17:07:41.589Z,40.50
2023-05-20T17:10:09.801Z,40.80
2023-05-20T17:12:37.519Z,40.70
2023-05-20T17:15:06.200Z,40.80
2023-05-20T17:17:34.379Z,40.70
2023-05-20T17:20:02.855Z,40.90
2023-05-20T17:22:34.313Z,40.90
2023-05-20T17:25:02.368Z,40.80
2023-05-20T17:27:34.709Z,41.00
2023-05-20T17:30:02.388Z,41.10
2023-05-20T17:32:36.954Z,41.10
2023-05-20T17:35:08.312Z,41.20
2023-05-20T17:37:37.092Z,41.30
2023-05-20T17:40:07.739Z,41.40
2023-05-20T17:42:35.440Z,41.60
2023-05-20T17:45:02.817Z,42.00
2023-05-20T17:47:33.971Z,41.80
2023-05-20T17:50:06.110Z,42.00
2023-05-20T17:52:33.651Z,41.90
2023-05-20T17:55:01.809Z,41.80
2023-05-20T17:57:35.008Z,41.90
2023-05-20T18:00:03.826Z,42.20
2023-05-20T18:02:35.731Z,42.30
2023-05-20T18:05:06.322Z,42.50
2023-05-20T18:07:37.681Z,42.50
2023-05-20T18:10:08.804Z,42.60
2023-05-20T18:12:39.465Z,42.70
2023-05-20T18:15:08.300Z,42.90
2023-05-20T18:17:40.599Z,42.90
2023-05-20T18:20:09.988Z,43.10
2023-05-20T18:22:37.999Z,43.20
2023-05-20T18:25:06.528Z,43.30
2023-05-20T18:27:34.387Z,43.40
2023-05-20T18:30:01.713Z,43.50
2023-05-20T18:32:36.669Z,43.60
2023-05-20T18:35:04.138Z,43.80
2023-05-20T18:37:37.432Z,43.70
2023-05-20T18:40:06.630Z,43.90
2023-05-20T18:42:34.634Z,44.10
2023-05-20T18:45:05.119Z,44.20
2023-05-20T18:47:33.224Z,44.10
2023-05-20T18:50:01.109Z,44.20
2023-05-20T18:52:28.689Z,44.30
2023-05-20T18:54:56.657Z,44.40
2023-05-20T18:57:25.122Z,44.80
2023-05-20T18:59:55.040Z,45.10
2023-05-20T19:02:22.867Z,45.20
2023-05-20T19:04:50.407Z,45.20
2023-05-20T19:07:17.756Z,45.30
2023-05-20T19:09:45.783Z,45.40
2023-05-20T19:12:16.298Z,45.50
2023-05-20T19:14:47.294Z,45.60
2023-05-20T19:17:19.569Z,45.50
2023-05-20T19:19:48.858Z,45.50
2023-05-20T19:22:18.232Z,45.70
2023-05-20T19:24:45.984Z,46.00
2023-05-20T19:27:13.805Z,45.70
2023-05-20T19:29:41.421Z,46.00
2023-05-20T19:32:09.493Z,46.00
2023-05-20T19:34:37.467Z,46.20
2023-05-20T19:37:05.051Z,46.30
2023-05-20T19:39:34.901Z,46.70
2023-05-20T19:42:04.491Z,46.70
2023-05-20T19:44:32.341Z,47.20
2023-05-20T19:46:59.896Z,47.30
2023-05-20T19:49:29.728Z,47.60
2023-05-20T19:51:57.173Z,47.70
2023-05-20T19:54:24.928Z,47.80
2023-05-20T19:56:54.866Z,47.90
2023-05-20T19:59:25.552Z,48.30
2023-05-20T20:01:53.053Z,48.70
2023-05-20T20:04:21.183Z,48.80
2023-05-20T20:06:48.835Z,49.00
2023-05-20T20:09:19.681Z,49.20
2023-05-20T20:11:50.132Z,49.40
2023-05-20T20:14:17.953Z,49.50
2023-05-20T20:16:49.626Z,49.70
2023-05-20T20:19:26.438Z,50.00
2023-05-20T20:21:56.986Z,50.00
2023-05-20T20:25:01.811Z,50.40
2023-05-20T20:27:33.870Z,50.60
2023-05-20T20:30:01.577Z,50.80
2023-05-20T20:32:35.008Z,51.00
2023-05-20T20:35:03.811Z,51.20
2023-05-20T20:37:31.814Z,51.30
2023-05-20T20:39:59.435Z,51.40
2023-05-20T20:42:32.575Z,51.80
2023-05-20T20:45:00.034Z,51.80
2023-05-20T20:47:31.233Z,51.80
2023-05-20T20:49:59.053Z,52.10
2023-05-20T20:52:27.555Z,52.30
2023-05-20T20:54:57.964Z,52.30
2023-05-20T20:57:26.911Z,52.50
2023-05-20T20:59:58.894Z,52.70
2023-05-20T21:02:33.671Z,52.90
2023-05-20T21:05:02.231Z,53.00
2023-05-20T21:07:38.857Z,53.00
2023-05-20T21:10:09.849Z,53.20
2023-05-20T21:12:38.046Z,53.10
2023-05-20T21:15:08.684Z,53.40
2023-05-20T21:17:39.888Z,53.40
2023-05-20T21:20:08.310Z,53.60
2023-05-20T21:22:35.699Z,53.70
2023-05-20T21:25:03.688Z,53.60
2023-05-20T21:27:31.349Z,53.90
2023-05-20T21:29:58.941Z,53.70
2023-05-20T21:32:27.315Z,53.70
2023-05-20T21:34:56.225Z,53.30
2023-05-20T21:37:25.407Z,53.10
2023-05-20T21:39:53.103Z,53.10
2023-05-20T21:42:20.920Z,53.10
2023-05-20T21:44:48.667Z,53.60
2023-05-20T21:47:16.254Z,53.40
2023-05-20T21:49:44.242Z,53.70
2023-05-20T21:52:11.707Z,54.30
2023-05-20T21:54:38.985Z,54.40
2023-05-20T21:57:07.082Z,54.60
2023-05-20T21:59:35.552Z,54.60
2023-05-20T22:02:06.741Z,54.70
2023-05-20T22:04:35.194Z,55.10
2023-05-20T22:07:03.234Z,55.10
2023-05-20T22:09:30.922Z,55.00
2023-05-20T22:12:03.045Z,55.40
2023-05-20T22:14:33.654Z,55.10
2023-05-20T22:17:01.412Z,55.00
2023-05-20T22:19:30.745Z,54.70
2023-05-20T22:21:58.968Z,54.40
2023-05-20T22:24:27.020Z,54.10
2023-05-20T22:26:54.582Z,54.10
2023-05-20T22:29:22.629Z,53.70
2023-05-20T22:31:52.898Z,53.70
2023-05-20T22:34:21.000Z,53.60
2023-05-20T22:36:49.938Z,53.00
2023-05-20T22:39:17.609Z,53.10
2023-05-20T22:41:48.414Z,53.00
2023-05-20T22:44:18.683Z,52.80
2023-05-20T22:46:46.191Z,53.00
2023-05-20T22:49:13.731Z,52.80
2023-05-20T22:51:41.333Z,53.00
2023-05-20T22:54:09.704Z,52.70
2023-05-20T22:56:37.734Z,52.40
2023-05-20T22:59:05.199Z,52.60
2023-05-20T23:01:35.411Z,52.60
2023-05-20T23:04:05.303Z,52.70
2023-05-20T23:06:33.544Z,52.80
2023-05-20T23:09:01.538Z,52.60
2023-05-20T23:11:40.508Z,52.70
2023-05-20T23:14:08.056Z,52.70
2023-05-20T23:16:36.780Z,52.90
2023-05-20T23:19:04.451Z,53.00
2023-05-20T23:21:32.266Z,52.90
2023-05-20T23:24:02.662Z,52.90
2023-05-20T23:26:33.742Z,52.80
2023-05-20T23:29:02.038Z,53.20
2023-05-20T23:31:30.277Z,53.10
2023-05-20T23:33:58.669Z,53.30
2023-05-20T23:36:25.880Z,53.30
2023-05-20T23:38:53.878Z,53.20
2023-05-20T23:41:24.312Z,53.50
2023-05-20T23:43:52.050Z,53.60
2023-05-20T23:46:22.182Z,53.50
2023-05-20T23:48:51.031Z,53.70
2023-05-20T23:51:18.432Z,53.80
2023-05-20T23:53:46.233Z,54.00
2023-05-20T23:56:15.980Z,53.90
2023-05-20T23:58:47.658Z,54.10
